Time;durP1;ratioP1;P1;durP2;ratioP2;P2;SDS_P1;SDS_P2;PMS_P1;PMS_P2;Temp;Humidity;BMP_temperature;BMP_pressure;BME280_temperature;BME280_humidity;BME280_pressure;Samples;Min_cycle;Max_cycle;Signal;HPM_P1;HPM_P2
2021/11/27 00:01:16;;;;;;;45.73;33.87;;;4.40;99.90;;;;;;5051190;28;20490;-73
2021/11/27 00:03:42;;;;;;;52.07;35.20;;;4.50;99.90;;;;;;5037776;28;20068;-72
2021/11/27 00:06:08;;;;;;;53.13;35.07;;;4.40;99.90;;;;;;5052789;28;20032;-73
2021/11/27 00:08:35;;;;;;;58.20;37.13;;;4.50;99.90;;;;;;5066512;28;20058;-72
2021/11/27 00:11:01;;;;;;;72.03;39.60;;;4.50;99.90;;;;;;5047181;28;21016;-73
2021/11/27 00:13:28;;;;;;;58.03;36.03;;;4.40;99.90;;;;;;5046092;28;20090;-70
2021/11/27 00:15:55;;;;;;;68.63;39.77;;;4.40;99.90;;;;;;5067531;28;20044;-71
2021/11/27 00:18:23;;;;;;;53.73;36.17;;;4.50;99.90;;;;;;5067660;28;20494;-72
2021/11/27 00:21:01;;;;;;;52.10;35.10;;;4.40;99.90;;;;;;5048559;28;20151;-70
2021/11/27 00:23:29;;;;;;;81.40;40.87;;;4.40;99.90;;;;;;5083272;28;20063;-70
2021/11/27 00:25:56;;;;;;;81.50;40.90;;;4.40;99.90;;;;;;5066238;28;20486;-72
2021/11/27 00:28:22;;;;;;;61.93;36.77;;;4.40;99.90;;;;;;5073014;28;20135;-71
2021/11/27 00:30:49;;;;;;;51.63;34.47;;;4.40;99.90;;;;;;5076866;28;20312;-72
2021/11/27 00:33:15;;;;;;;54.67;35.27;;;4.40;99.90;;;;;;5079216;28;20036;-71
2021/11/27 00:35:41;;;;;;;50.37;32.77;;;4.40;99.90;;;;;;5061032;28;20094;-71
2021/11/27 00:38:07;;;;;;;52.80;34.87;;;4.40;99.90;;;;;;5078567;28;20052;-71
2021/11/27 00:40:36;;;;;;;49.23;31.20;;;4.50;99.90;;;;;;5081304;28;20048;-71
2021/11/27 00:43:03;;;;;;;54.90;33.93;;;4.40;99.90;;;;;;5086958;28;20110;-75
2021/11/27 00:45:29;;;;;;;51.83;32.73;;;4.40;99.90;;;;;;5050531;28;20078;-75
2021/11/27 00:47:57;;;;;;;47.33;31.67;;;4.40;99.90;;;;;;5066531;28;20037;-75
2021/11/27 00:50:30;;;;;;;60.33;35.27;;;4.40;99.90;;;;;;5077643;28;20064;-75
2021/11/27 00:52:57;;;;;;;53.90;33.17;;;4.50;99.90;;;;;;5069123;28;20127;-75
2021/11/27 00:55:23;;;;;;;43.97;29.43;;;4.40;99.90;;;;;;5064985;28;20110;-75
2021/11/27 00:57:49;;;;;;;47.60;29.93;;;4.40;99.90;;;;;;5056961;28;20927;-74
2021/11/27 01:00:21;;;;;;;41.03;27.90;;;4.40;99.90;;;;;;5049876;28;20115;-74
2021/11/27 01:02:47;;;;;;;45.97;30.13;;;4.40;99.90;;;;;;5085105;28;20052;-74
2021/11/27 01:05:13;;;;;;;44.93;29.13;;;4.40;99.90;;;;;;5083020;28;20071;-74
2021/11/27 01:07:40;;;;;;;48.80;30.93;;;4.30;99.90;;;;;;5075568;28;20074;-74
2021/11/27 01:10:09;;;;;;;48.80;30.03;;;4.30;99.90;;;;;;5082046;28;20527;-74
2021/11/27 01:12:35;;;;;;;45.40;29.13;;;4.30;99.90;;;;;;5059453;28;20048;-74
2021/11/27 01:15:02;;;;;;;53.63;32.03;;;4.30;99.90;;;;;;5048919;28;20059;-74
2021/11/27 01:17:31;;;;;;;71.30;34.90;;;4.30;99.90;;;;;;5077777;28;20093;-74
2021/11/27 01:19:56;;;;;;;46.20;29.07;;;4.30;99.90;;;;;;5042846;28;20058;-74
2021/11/27 01:22:22;;;;;;;46.17;29.53;;;4.30;99.90;;;;;;5068140;28;20470;-75
2021/11/27 01:24:48;;;;;;;92.10;36.37;;;4.30;99.90;;;;;;5066264;28;20051;-74
2021/11/27 01:27:14;;;;;;;56.17;31.43;;;4.20;99.90;;;;;;5081970;28;20047;-77
2021/11/27 01:29:42;;;;;;;54.47;32.00;;;4.20;99.90;;;;;;5078597;28;20044;-74
2021/11/27 01:32:09;;;;;;;49.13;29.60;;;4.20;99.90;;;;;;5045952;28;20123;-74
2021/11/27 01:34:36;;;;;;;40.10;27.23;;;4.20;99.90;;;;;;5073895;28;20040;-74
2021/11/27 01:37:02;;;;;;;57.30;33.77;;;4.20;99.90;;;;;;5058107;28;20094;-74
2021/11/27 01:39:30;;;;;;;56.57;32.43;;;4.20;99.90;;;;;;5045160;28;20045;-74
2021/11/27 01:41:56;;;;;;;56.17;32.23;;;4.20;99.90;;;;;;5048510;28;20119;-74
2021/11/27 01:44:22;;;;;;;53.83;32.87;;;4.20;99.90;;;;;;5064335;28;20040;-74
2021/11/27 01:46:48;;;;;;;43.33;30.60;;;4.20;99.90;;;;;;5066716;28;20414;-74
2021/11/27 01:49:13;;;;;;;57.53;32.97;;;4.30;99.90;;;;;;5084347;28;20487;-74
2021/11/27 01:51:41;;;;;;;54.20;31.83;;;4.30;99.90;;;;;;5055197;28;20405;-74
2021/11/27 01:54:10;;;;;;;49.77;32.40;;;4.30;99.90;;;;;;5083083;28;20110;-74
2021/11/27 01:56:43;;;;;;;50.63;31.07;;;4.30;99.90;;;;;;5050899;28;20052;-75
2021/11/27 01:59:10;;;;;;;44.60;30.37;;;4.30;99.90;;;;;;5055207;28;20040;-75
2021/11/27 02:01:37;;;;;;;52.07;32.50;;;4.30;99.90;;;;;;5077123;28;20063;-75
2021/11/27 02:04:05;;;;;;;66.13;36.73;;;4.20;99.90;;;;;;5060815;28;20044;-74
2021/11/27 02:06:32;;;;;;;53.83;33.40;;;4.30;99.90;;;;;;5051343;28;20083;-74
2021/11/27 02:09:05;;;;;;;47.77;32.40;;;4.30;99.90;;;;;;5072551;28;20078;-74
2021/11/27 02:11:33;;;;;;;59.47;34.17;;;4.30;99.90;;;;;;5078038;28;20048;-74
2021/11/27 02:13:59;;;;;;;57.87;32.83;;;4.40;99.90;;;;;;5062672;28;20044;-75
2021/11/27 02:16:26;;;;;;;53.73;31.73;;;4.30;99.90;;;;;;5058836;28;20052;-75
2021/11/27 02:18:52;;;;;;;52.17;33.40;;;4.30;99.90;;;;;;5047476;28;20580;-74
2021/11/27 02:21:20;;;;;;;55.73;33.03;;;4.30;99.90;;;;;;5050943;28;20353;-75
2021/11/27 02:23:48;;;;;;;52.17;32.70;;;4.30;99.90;;;;;;5070335;28;20105;-75
2021/11/27 02:26:18;;;;;;;46.73;31.47;;;4.30;99.90;;;;;;5067005;28;20473;-75
2021/11/27 02:28:49;;;;;;;56.58;35.88;;;4.30;99.90;;;;;;5078030;28;20040;-74
2021/11/27 02:31:15;;;;;;;55.10;34.70;;;4.30;99.90;;;;;;5075441;28;20032;-75
2021/11/27 02:33:41;;;;;;;48.03;32.67;;;4.30;99.90;;;;;;5082828;28;20513;-75
2021/11/27 02:36:07;;;;;;;51.53;33.73;;;4.30;99.90;;;;;;5046616;28;20079;-75
2021/11/27 02:38:34;;;;;;;55.17;34.83;;;4.30;99.90;;;;;;5074934;28;20466;-74
2021/11/27 02:40:59;;;;;;;53.87;35.23;;;4.30;99.90;;;;;;5048186;28;20059;-75
2021/11/27 02:43:25;;;;;;;56.90;34.77;;;4.30;99.90;;;;;;5082533;28;20051;-75
2021/11/27 02:45:51;;;;;;;54.73;34.43;;;4.30;99.90;;;;;;5049030;28;20093;-75
2021/11/27 02:48:17;;;;;;;50.27;33.20;;;4.30;99.90;;;;;;5065487;28;20040;-75
2021/11/27 02:50:43;;;;;;;99.03;41.73;;;4.40;99.90;;;;;;5077251;28;20071;-75
2021/11/27 02:53:09;;;;;;;72.20;39.57;;;4.30;99.90;;;;;;5063483;28;20036;-75
2021/11/27 02:55:35;;;;;;;97.20;41.07;;;4.40;99.90;;;;;;5068206;28;20519;-75
2021/11/27 02:58:01;;;;;;;104.30;43.47;;;4.40;99.90;;;;;;5045417;28;20166;-75
2021/11/27 03:00:27;;;;;;;52.63;34.83;;;4.40;99.90;;;;;;5032599;28;20500;-75
2021/11/27 03:02:53;;;;;;;48.17;32.73;;;4.40;99.90;;;;;;5068357;28;20056;-75
2021/11/27 03:05:20;;;;;;;62.23;36.53;;;4.40;99.90;;;;;;5068251;28;20051;-75
2021/11/27 03:07:46;;;;;;;68.83;38.83;;;4.40;99.90;;;;;;5050815;28;20059;-76
2021/11/27 03:10:14;;;;;;;61.70;36.73;;;4.40;99.90;;;;;;5068235;28;20170;-75
2021/11/27 03:12:40;;;;;;;82.90;41.23;;;4.40;99.90;;;;;;5068397;28;20056;-75
2021/11/27 03:15:11;;;;;;;63.67;37.27;;;4.40;99.90;;;;;;5055571;28;20051;-75
2021/11/27 03:17:37;;;;;;;60.10;35.57;;;4.40;99.90;;;;;;5067721;28;20101;-75
2021/11/27 03:20:06;;;;;;;60.03;34.93;;;4.40;99.90;;;;;;5068878;28;20139;-75
2021/11/27 03:22:35;;;;;;;68.07;38.13;;;4.40;99.90;;;;;;5081366;28;20505;-75
2021/11/27 03:25:01;;;;;;;53.40;33.83;;;4.40;99.90;;;;;;5071159;28;20040;-74
2021/11/27 03:27:27;;;;;;;59.67;35.40;;;4.40;99.90;;;;;;5047820;28;20105;-75
2021/11/27 03:29:53;;;;;;;54.53;33.17;;;4.40;99.90;;;;;;5061965;28;20910;-71
2021/11/27 03:32:19;;;;;;;122.87;45.33;;;4.40;99.90;;;;;;5053096;28;20040;-71
2021/11/27 03:34:47;;;;;;;56.87;35.03;;;4.40;99.90;;;;;;5086229;28;20044;-71
2021/11/27 03:37:13;;;;;;;63.87;38.30;;;4.30;99.90;;;;;;5066651;28;20035;-71
2021/11/27 03:39:39;;;;;;;56.07;34.80;;;4.30;99.90;;;;;;5036052;28;20079;-71
2021/11/27 03:42:08;;;;;;;63.17;37.07;;;4.40;99.90;;;;;;5059391;28;20418;-71
2021/11/27 03:44:34;;;;;;;63.00;36.83;;;4.40;99.90;;;;;;5065948;28;20384;-71
2021/11/27 03:47:00;;;;;;;64.50;38.00;;;4.40;99.90;;;;;;5067411;28;20174;-71
2021/11/27 03:49:28;;;;;;;60.07;36.00;;;4.40;99.90;;;;;;5078071;28;20123;-71
2021/11/27 03:51:55;;;;;;;52.23;33.90;;;4.40;99.90;;;;;;5056264;28;20044;-71
2021/11/27 03:54:22;;;;;;;57.53;34.90;;;4.40;99.90;;;;;;5072734;28;20045;-71
2021/11/27 03:56:48;;;;;;;57.33;34.80;;;4.40;99.90;;;;;;5051069;28;20100;-71
2021/11/27 03:59:14;;;;;;;60.20;37.73;;;4.40;99.90;;;;;;5069987;28;20036;-71
2021/11/27 04:01:40;;;;;;;66.30;39.07;;;4.40;99.90;;;;;;5081254;28;20044;-71
2021/11/27 04:04:07;;;;;;;74.63;39.37;;;4.40;99.90;;;;;;5068053;28;20087;-71
2021/11/27 04:06:35;;;;;;;70.90;38.13;;;4.50;99.90;;;;;;5066381;28;20080;-71
2021/11/27 04:09:05;;;;;;;120.23;46.60;;;4.40;99.90;;;;;;5061056;28;20534;-71
2021/11/27 04:11:30;;;;;;;81.23;41.07;;;4.40;99.90;;;;;;5074846;28;20040;-71
2021/11/27 04:13:58;;;;;;;139.87;47.37;;;4.30;99.90;;;;;;5051413;28;20044;-71
2021/11/27 04:16:25;;;;;;;90.73;41.23;;;4.40;99.90;;;;;;5053692;28;20049;-71
2021/11/27 04:18:51;;;;;;;87.70;42.93;;;4.40;99.90;;;;;;5064956;28;20040;-71
2021/11/27 04:21:20;;;;;;;75.43;40.40;;;4.40;99.90;;;;;;5064467;28;20040;-71
2021/11/27 04:23:50;;;;;;;73.70;41.10;;;4.40;99.90;;;;;;5056521;28;20561;-71
2021/11/27 04:26:17;;;;;;;;;;;4.40;99.90;;;;;;5077437;28;20525;-71
2021/11/27 04:28:43;;;;;;;85.90;42.80;;;4.30;99.90;;;;;;5066593;28;19923;-74
2021/11/27 04:31:10;;;;;;;77.03;42.87;;;4.40;99.90;;;;;;5061031;28;20052;-74
2021/11/27 04:33:37;;;;;;;76.97;42.33;;;4.40;99.90;;;;;;5051026;28;20044;-75
2021/11/27 04:36:04;;;;;;;72.80;40.63;;;4.40;99.90;;;;;;5039643;28;20608;-74
2021/11/27 04:38:30;;;;;;;78.77;43.50;;;4.40;99.90;;;;;;5035005;28;20294;-75
2021/11/27 04:40:56;;;;;;;88.43;44.10;;;4.40;99.90;;;;;;5068020;28;20535;-74
2021/11/27 04:43:22;;;;;;;83.50;42.53;;;4.40;99.90;;;;;;5051111;28;20059;-74
2021/11/27 04:45:49;;;;;;;70.57;40.63;;;4.40;99.90;;;;;;5085502;28;20044;-74
2021/11/27 04:48:15;;;;;;;89.23;45.47;;;4.40;99.90;;;;;;5069044;28;20036;-75
2021/11/27 04:50:41;;;;;;;72.87;42.97;;;4.40;99.90;;;;;;5063338;28;20128;-74
2021/11/27 04:53:08;;;;;;;84.50;44.10;;;4.40;99.90;;;;;;5085467;28;20097;-75
2021/11/27 04:55:34;;;;;;;91.40;47.10;;;4.40;99.90;;;;;;5067795;28;20060;-75
2021/11/27 04:58:01;;;;;;;70.23;41.53;;;4.40;99.90;;;;;;5068476;28;20498;-74
2021/11/27 05:00:36;;;;;;;84.63;45.27;;;4.40;99.90;;;;;;5050309;28;20044;-74
2021/11/27 05:03:01;;;;;;;92.20;47.87;;;4.40;99.90;;;;;;5084445;28;20051;-74
2021/11/27 05:05:27;;;;;;;73.67;43.70;;;4.40;99.90;;;;;;5051292;28;20048;-75
2021/11/27 05:07:53;;;;;;;80.10;45.60;;;4.40;99.90;;;;;;5086923;28;20083;-75
2021/11/27 05:10:19;;;;;;;114.27;50.50;;;4.40;99.90;;;;;;5069761;28;20046;-71
2021/11/27 05:12:45;;;;;;;103.23;47.80;;;4.40;99.90;;;;;;5053218;28;20055;-71
2021/11/27 05:15:12;;;;;;;138.53;52.63;;;4.40;99.90;;;;;;5082296;28;20034;-71
2021/11/27 05:17:38;;;;;;;77.40;43.87;;;4.40;99.90;;;;;;5066902;28;20426;-71
2021/11/27 05:20:05;;;;;;;171.33;54.07;;;4.40;99.90;;;;;;5049668;28;20152;-71
2021/11/27 05:22:31;;;;;;;85.23;44.57;;;4.50;99.90;;;;;;5065897;28;20112;-71
2021/11/27 05:24:57;;;;;;;83.63;43.73;;;4.50;99.90;;;;;;5067031;28;20048;-71
2021/11/27 05:27:23;;;;;;;79.80;44.23;;;4.50;99.90;;;;;;5068152;28;20104;-71
2021/11/27 05:29:49;;;;;;;72.67;41.83;;;4.50;99.90;;;;;;5086102;28;20525;-71
2021/11/27 05:32:28;;;;;;;124.93;49.47;;;4.50;99.90;;;;;;5070191;28;20724;-71
2021/11/27 05:34:55;;;;;;;116.10;48.83;;;4.40;99.90;;;;;;5070982;28;20487;-71
2021/11/27 05:37:21;;;;;;;80.43;44.67;;;4.50;99.90;;;;;;5086901;28;20487;-71
2021/11/27 05:39:47;;;;;;;96.17;47.97;;;4.50;99.90;;;;;;5087010;28;20084;-71
2021/11/27 05:42:15;;;;;;;114.83;48.90;;;4.50;99.90;;;;;;5075491;28;20044;-71
2021/11/27 05:44:42;;;;;;;96.53;45.63;;;4.50;99.90;;;;;;5050235;28;20053;-71
2021/11/27 05:47:08;;;;;;;83.40;42.73;;;4.50;99.90;;;;;;5066470;28;20589;-71
2021/11/27 05:49:35;;;;;;;96.40;46.50;;;4.50;99.90;;;;;;5040103;28;20040;-71
2021/11/27 05:52:01;;;;;;;96.37;45.67;;;4.50;99.90;;;;;;5068090;28;20096;-71
2021/11/27 05:54:26;;;;;;;78.90;43.50;;;4.50;99.90;;;;;;5050272;28;20036;-75
2021/11/27 05:56:52;;;;;;;108.43;48.40;;;4.50;99.90;;;;;;5049135;28;20178;-75
2021/11/27 05:59:18;;;;;;;79.17;42.03;;;4.50;99.90;;;;;;5045800;28;20487;-74
2021/11/27 06:01:44;;;;;;;111.93;47.43;;;4.50;99.90;;;;;;5045844;28;20048;-75
2021/11/27 06:04:10;;;;;;;83.33;41.93;;;4.50;99.90;;;;;;5068613;28;20181;-75
2021/11/27 06:06:36;;;;;;;78.43;41.40;;;4.50;99.90;;;;;;5065215;28;20048;-74
2021/11/27 06:09:02;;;;;;;70.03;39.97;;;4.60;99.90;;;;;;5066278;28;20048;-75
2021/11/27 06:11:28;;;;;;;93.30;44.83;;;4.50;99.90;;;;;;5049116;28;20047;-75
2021/11/27 06:13:54;;;;;;;95.93;43.33;;;4.50;99.90;;;;;;5066183;28;20487;-75
2021/11/27 06:16:20;;;;;;;73.33;39.77;;;4.50;99.90;;;;;;5063130;28;20036;-75
2021/11/27 06:18:47;;;;;;;92.97;42.97;;;4.50;99.90;;;;;;5086560;28;20040;-75
2021/11/27 06:21:12;;;;;;;80.60;41.03;;;4.60;99.90;;;;;;5085591;28;20712;-75
2021/11/27 06:23:39;;;;;;;78.73;40.40;;;4.60;99.90;;;;;;5068026;28;20143;-71
2021/11/27 06:26:05;;;;;;;79.23;41.27;;;4.60;99.90;;;;;;5066347;28;20148;-71
2021/11/27 06:28:31;;;;;;;74.30;39.97;;;4.50;99.90;;;;;;5049491;28;20048;-71
2021/11/27 06:30:57;;;;;;;111.77;46.17;;;4.50;99.90;;;;;;5049731;28;20044;-71
2021/11/27 06:33:23;;;;;;;78.70;40.13;;;4.60;99.90;;;;;;5065176;28;20048;-71
2021/11/27 06:35:49;;;;;;;127.53;45.87;;;4.60;99.90;;;;;;5066478;28;20521;-71
2021/11/27 06:38:15;;;;;;;90.03;41.63;;;4.60;99.90;;;;;;5049371;28;20053;-71
2021/11/27 06:40:41;;;;;;;70.07;38.20;;;4.60;99.90;;;;;;5065831;28;20472;-70
2021/11/27 06:43:07;;;;;;;93.47;42.23;;;4.60;99.90;;;;;;5067707;28;20040;-70
2021/11/27 06:45:34;;;;;;;74.87;38.67;;;4.50;99.90;;;;;;5069426;28;20059;-71
2021/11/27 06:48:00;;;;;;;78.17;41.20;;;4.60;99.90;;;;;;5052820;28;20055;-74
2021/11/27 06:50:26;;;;;;;83.53;41.50;;;4.60;99.90;;;;;;5069452;28;20040;-75
2021/11/27 06:52:52;;;;;;;80.87;39.67;;;4.60;99.90;;;;;;5085955;28;20135;-74
2021/11/27 06:55:18;;;;;;;93.97;40.83;;;4.60;99.90;;;;;;5083818;28;20481;-74
2021/11/27 06:57:44;;;;;;;86.43;40.93;;;4.60;99.90;;;;;;5067081;28;20063;-75
2021/11/27 07:00:11;;;;;;;91.05;41.30;;;4.60;99.90;;;;;;5049753;28;20503;-74
2021/11/27 07:02:37;;;;;;;91.73;40.20;;;4.60;99.90;;;;;;5066167;28;20084;-74
2021/11/27 07:05:03;;;;;;;75.07;37.83;;;4.60;99.90;;;;;;5066188;28;20043;-74
2021/11/27 07:07:29;;;;;;;70.00;35.93;;;4.60;99.90;;;;;;5066391;28;20446;-75
2021/11/27 07:09:55;;;;;;;72.87;37.03;;;4.60;99.90;;;;;;5017265;28;20047;-74
2021/11/27 07:12:21;;;;;;;79.47;39.77;;;4.60;99.90;;;;;;5065494;28;20052;-74
2021/11/27 07:14:47;;;;;;;119.73;45.30;;;4.60;99.90;;;;;;5050109;28;20048;-75
2021/11/27 07:17:13;;;;;;;76.20;39.50;;;4.60;99.90;;;;;;5051665;28;20039;-75
2021/11/27 07:19:39;;;;;;;74.73;39.37;;;4.60;99.90;;;;;;5068677;28;20052;-75
2021/11/27 07:22:05;;;;;;;110.00;44.67;;;4.60;99.90;;;;;;5085761;28;20098;-74
2021/11/27 07:24:31;;;;;;;93.50;42.07;;;4.50;99.90;;;;;;5068192;28;20040;-75
2021/11/27 07:26:59;;;;;;;80.70;38.37;;;4.60;99.90;;;;;;5065190;28;20051;-74
2021/11/27 07:29:24;;;;;;;77.70;39.07;;;4.60;99.90;;;;;;5065190;28;20131;-75
2021/11/27 07:31:50;;;;;;;69.90;36.97;;;4.60;99.90;;;;;;5065889;28;20194;-74
2021/11/27 07:34:16;;;;;;;85.50;40.03;;;4.60;99.90;;;;;;5065091;28;20433;-75
2021/11/27 07:36:42;;;;;;;83.23;40.83;;;4.70;99.90;;;;;;5065405;28;20048;-75
2021/11/27 07:39:09;;;;;;;94.63;42.83;;;4.70;99.90;;;;;;5064963;28;20091;-75
2021/11/27 07:41:36;;;;;;;76.97;38.83;;;4.60;99.90;;;;;;5064925;28;20060;-75
2021/11/27 07:44:02;;;;;;;83.80;39.60;;;4.70;99.90;;;;;;5031944;28;20051;-74
2021/11/27 07:46:31;;;;;;;88.43;42.40;;;4.70;99.90;;;;;;5067183;28;20049;-75
2021/11/27 07:48:56;;;;;;;69.63;36.90;;;4.70;99.90;;;;;;5052467;28;20087;-75
2021/11/27 07:51:22;;;;;;;76.63;38.80;;;4.70;99.90;;;;;;5052292;28;20115;-75
2021/11/27 07:53:48;;;;;;;92.67;39.70;;;4.70;99.90;;;;;;5078595;28;20036;-75
2021/11/27 07:56:14;;;;;;;71.33;37.33;;;4.80;99.90;;;;;;5051270;28;20035;-74
2021/11/27 07:58:41;;;;;;;65.27;34.50;;;4.70;99.90;;;;;;5070234;28;20129;-74
2021/11/27 08:01:07;;;;;;;83.37;38.47;;;4.80;99.90;;;;;;5069950;28;20048;-74
2021/11/27 08:03:33;;;;;;;75.87;37.30;;;4.90;99.90;;;;;;5071594;28;20040;-74
2021/11/27 08:05:59;;;;;;;66.90;33.90;;;4.80;99.90;;;;;;5078147;28;20041;-74
2021/11/27 08:08:25;;;;;;;64.03;35.07;;;4.80;99.90;;;;;;5049670;28;20056;-75
2021/11/27 08:10:51;;;;;;;68.13;35.53;;;4.90;99.90;;;;;;5080112;28;20066;-75
2021/11/27 08:13:17;;;;;;;67.87;34.23;;;4.80;99.90;;;;;;5067378;28;20427;-75
2021/11/27 08:15:43;;;;;;;65.10;33.03;;;4.80;99.90;;;;;;5081703;28;20121;-75
2021/11/27 08:18:09;;;;;;;62.37;32.57;;;4.90;99.90;;;;;;5069219;28;20115;-75
2021/11/27 08:20:35;;;;;;;58.47;31.27;;;4.90;99.90;;;;;;5082458;28;20123;-75
2021/11/27 08:23:01;;;;;;;77.77;35.20;;;5.00;99.90;;;;;;5064990;28;20212;-75
2021/11/27 08:25:28;;;;;;;44.47;25.03;;;5.00;99.90;;;;;;5052730;28;20392;-75
2021/11/27 08:27:56;;;;;;;45.93;26.47;;;5.00;99.90;;;;;;5043035;28;20502;-75
2021/11/27 08:30:25;;;;;;;46.13;23.63;;;5.00;99.90;;;;;;5032847;28;20095;-74
2021/11/27 08:32:51;;;;;;;45.85;20.85;;;5.00;99.90;;;;;;5052656;28;20045;-75
2021/11/27 08:35:17;;;;;;;36.10;19.13;;;5.10;99.90;;;;;;5053779;28;20039;-75
2021/11/27 08:37:43;;;;;;;40.20;20.17;;;5.10;99.90;;;;;;5048057;28;20056;-75
2021/11/27 08:40:10;;;;;;;36.17;18.83;;;5.10;99.90;;;;;;5066446;28;20040;-75
2021/11/27 08:42:36;;;;;;;41.27;19.93;;;5.10;99.90;;;;;;5056845;28;20067;-75
2021/11/27 08:45:04;;;;;;;34.37;18.23;;;5.10;99.90;;;;;;5075202;28;20098;-75
2021/11/27 08:47:30;;;;;;;27.93;17.20;;;5.20;99.90;;;;;;5053737;28;20438;-75
2021/11/27 08:49:58;;;;;;;33.43;18.43;;;5.20;99.90;;;;;;5058407;28;20075;-74
2021/11/27 08:52:25;;;;;;;40.03;19.70;;;5.20;99.90;;;;;;5042749;28;20372;-75
2021/11/27 08:54:51;;;;;;;25.10;14.70;;;5.20;99.90;;;;;;5071672;28;20049;-75
2021/11/27 08:57:17;;;;;;;33.00;17.40;;;5.20;99.90;;;;;;5068585;28;20120;-75
2021/11/27 08:59:43;;;;;;;26.47;15.30;;;5.20;99.90;;;;;;5029027;28;20112;-75
2021/11/27 09:02:09;;;;;;;23.67;12.27;;;5.20;99.90;;;;;;5069879;28;20127;-75
2021/11/27 09:04:35;;;;;;;19.80;12.83;;;5.30;99.90;;;;;;5053302;28;20493;-75
2021/11/27 09:07:02;;;;;;;25.17;14.50;;;5.30;99.90;;;;;;5073085;28;20495;-75
2021/11/27 09:09:29;;;;;;;20.03;12.80;;;5.30;99.90;;;;;;5064525;28;20087;-75
2021/11/27 09:11:54;;;;;;;21.77;15.10;;;5.30;99.90;;;;;;5054363;28;20036;-75
2021/11/27 09:14:21;;;;;;;17.97;14.53;;;5.40;99.90;;;;;;5059053;28;20042;-75
2021/11/27 09:16:50;;;;;;;18.65;14.00;;;5.40;99.90;;;;;;5052233;28;20072;-74
2021/11/27 09:19:16;;;;;;;18.30;13.27;;;5.40;99.90;;;;;;5070926;28;20036;-74
2021/11/27 09:21:41;;;;;;;15.70;10.67;;;5.40;99.90;;;;;;5072922;28;20109;-74
2021/11/27 09:24:09;;;;;;;12.60;8.67;;;5.40;99.90;;;;;;5069202;28;20558;-74
2021/11/27 09:26:37;;;;;;;12.17;10.10;;;5.40;99.90;;;;;;5052947;28;20037;-74
2021/11/27 09:29:05;;;;;;;13.87;9.03;;;5.40;99.90;;;;;;5064732;28;20089;-75
2021/11/27 09:31:31;;;;;;;11.50;9.30;;;5.30;99.90;;;;;;5050751;28;20082;-74
2021/11/27 09:33:56;;;;;;;12.63;9.47;;;5.30;99.90;;;;;;5067115;28;20523;-75
2021/11/27 09:36:24;;;;;;;12.17;9.07;;;5.20;99.90;;;;;;5068005;28;20050;-75
2021/11/27 09:38:50;;;;;;;12.83;9.10;;;5.20;99.90;;;;;;5051374;28;20517;-75
2021/11/27 09:41:32;;;;;;;11.97;9.20;;;5.20;99.90;;;;;;5066435;28;20559;-75
2021/11/27 09:44:04;;;;;;;12.40;9.63;;;5.30;99.90;;;;;;5055213;28;20040;-75
2021/11/27 09:46:32;;;;;;;10.83;9.13;;;5.20;99.90;;;;;;5054418;28;20039;-75
2021/11/27 09:49:01;;;;;;;10.95;9.48;;;5.20;99.90;;;;;;5067157;28;20040;-75
2021/11/27 09:51:30;;;;;;;13.17;10.53;;;5.20;99.90;;;;;;5068484;28;20043;-75
2021/11/27 09:53:58;;;;;;;12.02;10.80;;;5.20;99.90;;;;;;5070455;28;20490;-75
2021/11/27 09:56:25;;;;;;;13.63;12.23;;;5.20;99.90;;;;;;5028681;28;20052;-75
2021/11/27 09:58:52;;;;;;;15.60;13.50;;;5.10;99.90;;;;;;5077109;28;20076;-75
2021/11/27 10:01:37;;;;;;;14.33;12.90;;;5.20;99.90;;;;;;5080135;28;20036;-75
2021/11/27 10:04:08;;;;;;;13.27;11.93;;;5.10;99.90;;;;;;5068416;28;20040;-75
2021/11/27 10:06:39;;;;;;;16.80;14.47;;;5.10;99.90;;;;;;5071208;28;20465;-75
2021/11/27 10:09:11;;;;;;;18.50;16.40;;;5.10;99.90;;;;;;5076870;28;20107;-75
2021/11/27 10:11:37;;;;;;;18.43;16.53;;;5.10;99.90;;;;;;5051584;28;20044;-75
2021/11/27 10:14:05;;;;;;;19.73;17.70;;;5.10;99.90;;;;;;5054245;28;20055;-75
2021/11/27 10:16:33;;;;;;;19.83;17.73;;;5.20;99.90;;;;;;5066054;28;20132;-75
2021/11/27 10:19:16;;;;;;;21.73;19.13;;;5.10;99.90;;;;;;5060049;28;20403;-76
2021/11/27 10:21:42;;;;;;;23.30;20.80;;;5.10;99.90;;;;;;5067110;28;20084;-76
2021/11/27 10:24:38;;;;;;;22.40;19.87;;;5.10;99.90;;;;;;5054810;28;20098;-76
2021/11/27 10:27:16;;;;;;;25.57;22.83;;;5.20;99.90;;;;;;5060141;28;20147;-76
2021/11/27 10:29:42;;;;;;;24.87;22.23;;;5.10;99.90;;;;;;5070947;28;20118;-77
2021/11/27 10:32:15;;;;;;;22.00;19.80;;;5.20;99.90;;;;;;5069430;28;20621;-77
2021/11/27 10:34:50;;;;;;;24.00;21.60;;;5.20;99.90;;;;;;5066992;28;20046;-76
2021/11/27 10:37:33;;;;;;;23.40;21.17;;;5.10;99.90;;;;;;5069230;28;20123;-77
2021/11/27 10:40:15;;;;;;;23.70;21.50;;;5.10;99.90;;;;;;5066975;28;20047;-76
2021/11/27 10:42:50;;;;;;;22.17;20.10;;;5.10;99.90;;;;;;5059896;28;20047;-77
2021/11/27 10:45:19;;;;;;;22.97;20.70;;;5.10;99.90;;;;;;5064625;28;20047;-76
2021/11/27 10:47:47;;;;;;;20.53;18.53;;;5.10;99.90;;;;;;5070559;28;20052;-76
2021/11/27 10:50:19;;;;;;;21.50;19.50;;;5.00;99.90;;;;;;5067541;28;20036;-77
2021/11/27 10:52:47;;;;;;;22.63;20.40;;;5.00;99.90;;;;;;5065496;28;20101;-76
2021/11/27 10:55:21;;;;;;;19.07;17.03;;;5.10;99.90;;;;;;5055532;28;20059;-76
2021/11/27 10:57:48;;;;;;;19.90;18.00;;;5.10;99.90;;;;;;5070305;28;20415;-74
2021/11/27 11:00:45;;;;;;;20.10;18.03;;;5.00;99.90;;;;;;5079928;28;20048;-75
2021/11/27 11:03:36;;;;;;;20.70;18.70;;;5.00;99.90;;;;;;5065483;28;20495;-75
2021/11/27 11:06:22;;;;;;;19.53;17.53;;;5.00;99.90;;;;;;5074913;28;20055;-75
2021/11/27 11:08:50;;;;;;;17.80;16.10;;;5.00;99.90;;;;;;5069532;28;20040;-75
2021/11/27 11:11:24;;;;;;;18.33;16.50;;;5.00;99.90;;;;;;5079185;28;20044;-75
2021/11/27 11:14:20;;;;;;;17.90;16.03;;;4.90;99.90;;;;;;5072936;28;20047;-75
2021/11/27 11:16:57;;;;;;;16.97;15.20;;;5.00;99.90;;;;;;5079630;28;20105;-75
2021/11/27 11:19:23;;;;;;;16.75;15.07;;;5.00;99.90;;;;;;5078766;28;20506;-75
2021/11/27 11:22:08;;;;;;;15.90;14.35;;;5.00;99.90;;;;;;5040044;28;20566;-75
2021/11/27 11:24:38;;;;;;;16.97;15.30;;;4.90;99.90;;;;;;5069015;28;20060;-75
2021/11/27 11:27:07;;;;;;;16.17;14.57;;;5.00;99.90;;;;;;5047116;28;20422;-75
2021/11/27 11:29:44;;;;;;;14.10;12.67;;;4.90;99.90;;;;;;5064304;28;20472;-75
2021/11/27 11:32:18;;;;;;;15.57;14.00;;;4.90;99.90;;;;;;5064121;28;20048;-74
2021/11/27 11:34:46;;;;;;;13.80;12.33;;;4.90;99.90;;;;;;5073521;28;20052;-75
2021/11/27 11:37:12;;;;;;;13.57;12.17;;;4.90;99.90;;;;;;5064419;28;20044;-75
2021/11/27 11:39:38;;;;;;;12.03;10.87;;;4.80;99.90;;;;;;5075758;28;20041;-75
2021/11/27 11:42:05;;;;;;;11.40;10.30;;;4.90;99.90;;;;;;5056005;28;20086;-71
2021/11/27 11:44:35;;;;;;;12.23;11.03;;;4.80;99.90;;;;;;5063089;28;20377;-71
2021/11/27 11:47:02;;;;;;;10.07;8.93;;;4.90;99.90;;;;;;5084647;28;20410;-71
2021/11/27 11:49:29;;;;;;;9.05;8.10;;;4.80;99.90;;;;;;5070453;28;20233;-71
2021/11/27 11:52:06;;;;;;;9.17;7.43;;;4.80;99.90;;;;;;5057833;28;20049;-71
2021/11/27 11:54:33;;;;;;;11.03;9.33;;;4.80;99.90;;;;;;5071228;28;20119;-71
2021/11/27 11:57:04;;;;;;;8.67;7.83;;;4.70;99.90;;;;;;5048522;28;20045;-71
2021/11/27 11:59:32;;;;;;;;;;;4.80;99.90;;;;;;5069458;28;20550;-71
2021/11/27 12:02:24;;;;;;;6.73;6.03;;;4.70;99.90;;;;;;5040222;28;20019;-71
2021/11/27 12:05:17;;;;;;;6.90;6.20;;;4.70;99.90;;;;;;5067955;28;20116;-72
2021/11/27 12:07:43;;;;;;;5.93;5.33;;;4.70;99.90;;;;;;5059694;28;20574;-71
2021/11/27 12:10:20;;;;;;;5.80;4.83;;;4.70;99.90;;;;;;5055610;28;20043;-72
2021/11/27 12:13:09;;;;;;;6.73;5.57;;;4.60;99.90;;;;;;5036458;28;20106;-72
2021/11/27 12:15:43;;;;;;;7.37;5.80;;;4.60;99.90;;;;;;5073285;28;20048;-71
2021/11/27 12:18:27;;;;;;;8.37;5.47;;;4.60;99.90;;;;;;5070207;28;20044;-72
2021/11/27 12:20:59;;;;;;;5.57;5.03;;;4.60;99.90;;;;;;5071998;28;20048;-71
2021/11/27 12:23:28;;;;;;;5.23;4.50;;;4.50;99.90;;;;;;5056602;28;20168;-71
2021/11/27 12:26:16;;;;;;;6.35;5.75;;;4.50;99.90;;;;;;5055511;28;20518;-71
2021/11/27 12:28:49;;;;;;;5.70;4.97;;;4.40;99.90;;;;;;5066909;28;20155;-71
2021/11/27 12:31:16;;;;;;;5.33;4.80;;;4.40;99.90;;;;;;5087858;28;20055;-71
2021/11/27 12:34:03;;;;;;;5.87;5.27;;;4.40;99.90;;;;;;5088116;28;20048;-72
2021/11/27 12:36:34;;;;;;;6.37;5.30;;;4.40;99.90;;;;;;5063573;28;20075;-71
2021/11/27 12:39:22;;;;;;;6.43;5.83;;;4.40;99.90;;;;;;5068120;28;20152;-71
2021/11/27 12:42:05;;;;;;;7.50;6.47;;;4.40;99.90;;;;;;5073478;28;20060;-71
2021/11/27 12:44:51;;;;;;;9.70;8.27;;;4.40;99.90;;;;;;5068656;28;20561;-72